Flight Track Log - Related Links

Times and Time Zones

All times are in EDT time to prevent confusion due to time zone crossing. See the N72100 flight status page for this flight to view local times or setup timezone preferences in your user account.

Time Position Orientation Groundspeed Altitude Reporting Facility
EDT Latitude Longitude Course Direction KTS MPH feet Rate Location/Type
Tue 06:40:56 PM 40.0194 -81.6472 270° West 63 72 4,300  Level Indianapolis Center
Tue 06:41:58 PM 40.0172 -81.6883 266° West 104 120 5,200 871 Climbing Indianapolis Center
Tue 06:43:00 PM 40.0111 -81.7361 261° West 111 128 6,100 774 Climbing Indianapolis Center
Tue 06:44:02 PM 40.0072 -81.7803 263° West 115 132 6,800 677 Climbing Indianapolis Center
Tue 06:45:04 PM 40.0042 -81.8222 265° West 118 136 7,500 581 Climbing Indianapolis Center
Tue 06:46:00 PM 39.9500 -81.9085 270° West  Level FlightAware Approximate
Tue 06:46:06 PM 40.0025 -81.8647 267° West 116 133 8,000  Level Indianapolis Center
Tue 06:47:08 PM 39.9961 -81.9172 261° West 137 158 8,000  Level Indianapolis Center
Tue 06:48:09 PM 39.9919 -81.9869 266° West 169 194 8,000  Level Indianapolis Center
Tue 06:49:10 PM 39.9886 -82.0464 266° West 169 194 8,000  Level Indianapolis Center
Tue 06:50:14 PM 39.9828 -82.1094 263° West 167 192 8,000  Level Indianapolis Center
Tue 06:51:16 PM 39.9786 -82.1703 265° West 170 196 8,000  Level Indianapolis Center
Tue 06:52:18 PM 39.9742 -82.2319 265° West 169 194 8,000  Level Indianapolis Center
Tue 06:53:20 PM 39.9689 -82.3000 264° West 171 197 8,000  Level Indianapolis Center
Tue 06:54:21 PM 39.9631 -82.3592 263° West 171 197 8,000  Level Indianapolis Center
Tue 06:55:21 PM 39.9592 -82.4211 265° West 169 194 8,000  Level Indianapolis Center
Tue 06:56:22 PM 39.9531 -82.4831 263° West 171 197 8,000  Level Indianapolis Center
Tue 06:57:29 PM 39.9486 -82.5533 265° West 170 196 8,000  Level Indianapolis Center
Tue 06:58:18 PM 39.9433 -82.6044 262° West 170 196 8,000  Level Indianapolis Center
Tue 06:59:25 PM 39.9389 -82.6719 265° West 171 197 8,000  Level Indianapolis Center
Tue 07:00:20 PM 39.9331 -82.7283 262° West 171 197 8,000  Level Indianapolis Center
Tue 07:00:35 PM 39.9325 -82.7378 266° West 172 198 8,000  Level Indianapolis Center
Tue 07:01:15 PM 39.9292 -82.7850 265° West 171 197 8,000  Level Indianapolis Center
Tue 07:01:37 PM 39.9283 -82.8000 266° West 172 198 8,000  Level Indianapolis Center
Tue 07:02:39 PM 39.9228 -82.8619 263° West 171 197 8,000  Level Indianapolis Center
Tue 07:03:29 PM 39.9181 -82.9222 264° West 171 197 8,000  Level Indianapolis Center
Tue 07:04:23 PM 39.9119 -82.9786 262° West 173 199 8,000  Level Indianapolis Center
Tue 07:04:43 PM 39.9108 -82.9969 265° West 172 198 8,000  Level Indianapolis Center
Tue 07:05:18 PM 39.9064 -83.0325 261° West 173 199 8,000  Level Indianapolis Center
Tue 07:05:45 PM 39.9058 -83.0586 268° West 170 196 8,000  Level Indianapolis Center
Tue 07:06:25 PM 39.9014 -83.1025 262° West 170 196 8,000  Level Indianapolis Center
Tue 07:06:47 PM 39.9000 -83.1206 264° West 170 196 8,000  Level Indianapolis Center
Tue 07:07:20 PM 39.8975 -83.1592 265° West 170 196 8,000  Level Indianapolis Center
Tue 07:07:49 PM 39.8950 -83.1831 262° West 172 198 8,000  Level Indianapolis Center
Tue 07:08:32 PM 39.8903 -83.2344 263° West 170 196 8,000  Level Indianapolis Center
Tue 07:08:51 PM 39.8900 -83.2439 268° West 171 197 8,000  Level Indianapolis Center
Tue 07:09:27 PM 39.8867 -83.2856 264° West 170 196 8,000  Level Indianapolis Center
Tue 07:09:52 PM 39.8847 -83.3064 263° West 171 197 8,000  Level Indianapolis Center
Tue 07:10:28 PM 39.8797 -83.3528 262° West 170 196 8,000  Level Indianapolis Center
Tue 07:10:54 PM 39.8789 -83.3672 266° West 170 196 8,000  Level Indianapolis Center
Tue 07:11:34 PM 39.8750 -83.4172 264° West 172 198 8,000  Level Indianapolis Center
Tue 07:11:56 PM 39.8728 -83.4400 263° West 172 198 8,000  Level Indianapolis Center
Tue 07:12:35 PM 39.8686 -83.4792 262° West 172 198 8,000  Level Indianapolis Center
Tue 07:12:58 PM 39.8678 -83.4997 267° West 172 198 8,000  Level Indianapolis Center
Tue 07:13:42 PM 39.8633 -83.5517 264° West 171 197 8,000  Level Indianapolis Center
Tue 07:14:00 PM 39.8619 -83.5606 258° West 171 197 8,000  Level Indianapolis Center
Tue 07:14:25 PM 39.8581 -83.5947 262° West 171 197 8,000  Level Indianapolis Center
Tue 07:15:02 PM 39.8564 -83.6219 265° West 171 197 8,000  Level Indianapolis Center
Tue 07:15:31 PM 39.8533 -83.6592 264° West 172 198 8,000  Level Indianapolis Center
Tue 07:16:04 PM 39.8508 -83.6839 263° West 171 197 8,000  Level Indianapolis Center
Tue 07:16:32 PM 39.8486 -83.7211 266° West 171 197 8,000  Level Indianapolis Center
Tue 07:17:06 PM 39.8444 -83.7561 261° West 171 197 8,000  Level Indianapolis Center
Tue 07:17:39 PM 39.8414 -83.7908 263° West 169 194 8,000  Level Indianapolis Center
Tue 07:18:08 PM 39.8383 -83.8183 262° West 172 198 8,000  Level Indianapolis Center
Tue 07:18:34 PM 39.8350 -83.8472 261° West 171 197 8,000  Level Indianapolis Center
Tue 07:19:09 PM 39.8347 -83.8806 269° West 171 197 8,000  Level Indianapolis Center
Tue 07:19:34 PM 39.8344 -83.9097 269° West 171 197 8,000  Level Indianapolis Center
Tue 07:20:11 PM 39.8361 -83.9425 274° West 170 196 8,000  Level Indianapolis Center
Tue 07:20:35 PM 39.8361 -83.9697 270° West 171 197 8,000  Level Indianapolis Center
Tue 07:21:13 PM 39.8378 -84.0056 273° West 172 198 8,000  Level Indianapolis Center
Tue 07:22:15 PM 39.8389 -84.0678 271° West 171 197 8,000  Level Indianapolis Center
Tue 07:22:37 PM 39.8389 -84.0950 270° West 171 197 8,000  Level Indianapolis Center
Tue 07:23:17 PM 39.8400 -84.1303 272° West 171 197 8,000  Level Indianapolis Center
Tue 07:24:19 PM 39.8394 -84.1925 269° West 171 197 8,000  Level Indianapolis Center
Tue 07:24:45 PM 39.8411 -84.2286 273° West 172 198 8,000  Level Indianapolis Center
Tue 07:25:20 PM 39.8408 -84.2661 269° West 172 198 8,000  Level Indianapolis Center
Tue 07:25:46 PM 39.8403 -84.2908 268° West 171 197 8,000  Level Indianapolis Center
Tue 07:26:22 PM 39.8411 -84.3297 272° West 173 199 8,000  Level Indianapolis Center
Tue 07:26:47 PM 39.8417 -84.3536 272° West 173 199 8,000  Level Indianapolis Center
Tue 07:27:24 PM 39.8417 -84.3919 270° West 172 198 8,000  Level Indianapolis Center
Tue 07:27:47 PM 39.8408 -84.4161 267° West 170 196 8,000  Level Indianapolis Center
Tue 07:28:26 PM 39.8419 -84.4542 272° West 171 197 8,000  Level Indianapolis Center
Tue 07:28:48 PM 39.8419 -84.4789 270° West 171 197 8,000  Level Indianapolis Center
Tue 07:29:28 PM 39.8433 -84.5167 273° West 171 197 8,000  Level Indianapolis Center
Tue 07:29:49 PM 39.8431 -84.5442 269° West 171 197 8,000  Level Indianapolis Center
Tue 07:30:30 PM 39.8422 -84.5789 268° West 170 196 8,000  Level Indianapolis Center
Tue 07:31:31 PM 39.8436 -84.6414 272° West 171 197 8,000  Level Indianapolis Center
Tue 07:32:46 PM 39.8450 -84.7239 271° West 170 196 8,000  Level Indianapolis Center
Tue 07:33:46 PM 39.8442 -84.7836 269° West 169 194 8,000  Level Indianapolis Center
Tue 07:34:47 PM 39.8450 -84.8464 271° West 168 193 8,000  Level Indianapolis Center
Tue 07:35:39 PM 39.8439 -84.8967 268° West 167 192 8,000 -263 Level Indianapolis Center
Tue 07:36:41 PM 39.8447 -84.9536 271° West 171 197 7,500 -532 Descending Indianapolis Center
Tue 07:37:43 PM 39.8447 -85.0328 270° West 185 213 6,900 -532 Descending Indianapolis Center
Tue 07:38:45 PM 39.8450 -85.1003 270° West 186 214 6,400 -439 Descending Indianapolis Center
Tue 07:39:46 PM 39.8447 -85.1656 270° West 182 209 6,000 -195 Descending Indianapolis Center
Tue 07:40:48 PM 39.8458 -85.2297 271° West 177 204 6,000 -48 Level Indianapolis Center
Tue 07:41:50 PM 39.8450 -85.2903 269° West 168 193 5,900 -290 Descending Indianapolis Center
Tue 07:42:52 PM 39.8450 -85.3506 270° West 165 190 5,400 -532 Descending Indianapolis Center
Tue 07:43:54 PM 39.8453 -85.4139 270° West 172 198 4,800 -634 Descending Indianapolis Center
Tue 07:44:55 PM 39.8450 -85.4878 270° West 173 199 4,100 -634 Descending Indianapolis Center
Tue 07:45:57 PM 39.8444 -85.5519 269° West 175 201 3,500 -581 Descending Indianapolis Center
Tue 07:46:59 PM 39.8442 -85.6158 270° West 175 201 2,900 -290 Descending Indianapolis Center
Tue 07:48:01 PM 39.8444 -85.6750 270° West 170 196 2,900  Level Indianapolis Center
Tue 07:49:02 PM 39.8433 -85.7289 268° West 158 182 2,900  Level Indianapolis Center
Tue 07:50:04 PM 39.8439 -85.7833 271° West 152 175 2,900  Level Indianapolis Center

Login

Don't have an account? Register now (free) for customized features, flight alerts, and more!